createdAt,value
2019-02-18T00:01:07.797Z,73.70
2019-02-18T00:03:39.969Z,73.67
2019-02-18T00:06:12.337Z,73.70
2019-02-18T00:08:44.506Z,73.57
2019-02-18T00:11:16.807Z,73.71
2019-02-18T00:13:50.192Z,73.65
2019-02-18T00:16:22.280Z,73.68
2019-02-18T00:18:54.772Z,73.86
2019-02-18T00:21:26.871Z,73.88
2019-02-18T00:23:59.122Z,73.93
2019-02-18T00:26:31.367Z,73.93
2019-02-18T00:29:03.666Z,74.01
2019-02-18T00:31:35.840Z,73.98
2019-02-18T00:34:08.168Z,73.83
2019-02-18T00:36:40.561Z,73.87
2019-02-18T00:39:13.038Z,73.85
2019-02-18T00:41:45.210Z,73.80
2019-02-18T00:44:17.601Z,73.73
2019-02-18T00:46:49.848Z,73.72
2019-02-18T00:49:22.179Z,73.69
2019-02-18T00:51:54.413Z,73.78
2019-02-18T00:54:27.037Z,73.66
2019-02-18T00:56:59.234Z,73.71
2019-02-18T00:59:31.643Z,73.68
2019-02-18T01:02:03.797Z,73.74
2019-02-18T01:04:36.194Z,73.60
2019-02-18T01:07:08.655Z,73.59
2019-02-18T01:09:41.174Z,73.45
2019-02-18T01:12:14.403Z,73.44
2019-02-18T01:14:46.670Z,73.61
2019-02-18T01:17:18.925Z,73.53
2019-02-18T01:19:51.102Z,73.51
2019-02-18T01:22:23.478Z,73.45
2019-02-18T01:24:56.577Z,73.46
2019-02-18T01:27:28.686Z,73.45
2019-02-18T01:30:00.996Z,73.61
2019-02-18T01:32:33.233Z,73.39
2019-02-18T01:35:05.560Z,73.34
2019-02-18T01:37:45.170Z,73.35
2019-02-18T01:40:12.940Z,73.30
2019-02-18T01:42:45.189Z,73.18
2019-02-18T01:45:17.372Z,73.25
2019-02-18T01:47:50.568Z,73.25
2019-02-18T01:50:22.720Z,73.03
2019-02-18T01:52:54.996Z,73.18
2019-02-18T01:55:27.056Z,73.20
2019-02-18T01:57:59.233Z,73.32
2019-02-18T02:00:31.420Z,73.17
2019-02-18T02:03:03.645Z,73.23
2019-02-18T02:05:35.713Z,72.78
2019-02-18T02:08:07.958Z,72.92
2019-02-18T02:10:40.179Z,73.14
2019-02-18T02:13:43.265Z,72.75
2019-02-18T02:16:15.451Z,72.87
2019-02-18T02:18:48.647Z,72.83
2019-02-18T02:21:20.761Z,72.90
2019-02-18T02:23:53.280Z,72.77
2019-02-18T02:26:25.658Z,72.49
2019-02-18T02:28:58.086Z,72.50
2019-02-18T02:31:30.253Z,72.42
2019-02-18T02:34:02.696Z,72.11
2019-02-18T02:36:34.709Z,72.29
2019-02-18T02:39:08.798Z,72.32
2019-02-18T02:41:41.111Z,72.34
2019-02-18T02:44:13.160Z,72.43
2019-02-18T02:46:45.470Z,72.43
2019-02-18T02:49:17.665Z,72.34
2019-02-18T02:51:49.744Z,72.48
2019-02-18T02:54:22.038Z,72.44
2019-02-18T02:56:54.390Z,72.46
2019-02-18T02:59:26.571Z,72.47
2019-02-18T03:01:58.840Z,72.54
2019-02-18T03:04:30.965Z,72.28
2019-02-18T03:07:03.116Z,72.48
2019-02-18T03:09:35.328Z,72.56
2019-02-18T03:12:08.539Z,72.59
2019-02-18T03:14:40.854Z,72.58
2019-02-18T03:17:13.085Z,72.29
2019-02-18T03:19:45.356Z,72.41
2019-02-18T03:22:17.480Z,72.50
2019-02-18T03:25:08.103Z,72.67
2019-02-18T03:27:40.153Z,72.29
2019-02-18T03:30:21.064Z,72.33
2019-02-18T03:32:55.441Z,72.25
2019-02-18T03:35:28.693Z,72.31
2019-02-18T03:38:00.985Z,72.34
2019-02-18T03:40:34.283Z,72.32
2019-02-18T03:43:06.565Z,72.32
2019-02-18T03:45:38.750Z,72.27
2019-02-18T03:48:10.816Z,72.25
2019-02-18T03:50:43.999Z,72.24
2019-02-18T03:53:16.286Z,72.23
2019-02-18T03:55:48.555Z,72.17
2019-02-18T03:58:20.751Z,72.12
2019-02-18T04:00:53.241Z,72.04
2019-02-18T04:03:26.488Z,72.05
2019-02-18T04:05:59.635Z,71.73
2019-02-18T04:08:42.007Z,70.62
2019-02-18T04:11:05.460Z,69.50
2019-02-18T04:13:37.552Z,69.19
2019-02-18T04:16:09.781Z,68.73
2019-02-18T04:18:41.921Z,69.14
2019-02-18T04:21:14.236Z,69.26
2019-02-18T04:23:46.639Z,68.57
2019-02-18T04:26:18.861Z,68.14
2019-02-18T04:28:50.998Z,68.09
2019-02-18T04:31:24.358Z,68.19
2019-02-18T04:33:56.666Z,67.88
2019-02-18T04:36:29.276Z,67.79
2019-02-18T04:39:01.758Z,67.81
2019-02-18T04:41:36.045Z,67.87
2019-02-18T04:44:08.112Z,67.92
2019-02-18T04:46:40.381Z,67.90
2019-02-18T04:49:13.587Z,68.09
2019-02-18T04:51:45.783Z,68.37
2019-02-18T04:54:18.104Z,68.55
2019-02-18T04:56:50.326Z,68.66
2019-02-18T04:59:22.704Z,68.65
2019-02-18T05:01:54.884Z,68.66
2019-02-18T05:04:27.164Z,68.58
2019-02-18T05:06:59.462Z,68.51
2019-02-18T05:09:31.795Z,68.48
2019-02-18T05:12:04.181Z,68.36
2019-02-18T05:14:36.410Z,67.96
2019-02-18T05:17:09.602Z,68.10
2019-02-18T05:19:41.862Z,68.13
2019-02-18T05:22:14.249Z,68.75
2019-02-18T05:24:46.556Z,69.18
2019-02-18T05:27:18.678Z,69.29
2019-02-18T05:29:50.841Z,69.41
2019-02-18T05:32:23.140Z,69.45
2019-02-18T05:34:58.604Z,69.40
2019-02-18T05:37:30.932Z,69.48
2019-02-18T05:40:04.420Z,69.52
2019-02-18T05:42:36.622Z,69.52
2019-02-18T05:45:09.852Z,69.58
2019-02-18T05:47:42.156Z,69.59
2019-02-18T05:50:15.342Z,69.73
2019-02-18T05:52:47.626Z,69.49
2019-02-18T05:55:19.836Z,69.46
2019-02-18T05:57:52.176Z,69.60
2019-02-18T06:00:24.530Z,69.70
2019-02-18T06:02:57.770Z,69.76
2019-02-18T06:05:30.239Z,69.75
2019-02-18T06:08:02.398Z,69.75
2019-02-18T06:10:34.697Z,69.78
2019-02-18T06:13:07.112Z,69.91
2019-02-18T06:15:39.413Z,69.81
2019-02-18T06:18:11.781Z,69.84
2019-02-18T06:20:44.099Z,69.81
2019-02-18T06:23:16.368Z,69.83
2019-02-18T06:25:48.862Z,69.83
2019-02-18T06:28:20.994Z,69.84
2019-02-18T06:30:54.921Z,69.91
2019-02-18T06:33:28.428Z,70.02
2019-02-18T06:36:01.100Z,70.02
2019-02-18T06:38:33.407Z,69.90
2019-02-18T06:41:05.687Z,70.07
2019-02-18T06:43:38.003Z,70.05
2019-02-18T06:46:27.984Z,70.01
2019-02-18T06:49:10.873Z,70.00
2019-02-18T06:51:43.101Z,70.11
2019-02-18T06:54:15.522Z,69.95
2019-02-18T06:57:06.305Z,69.87
2019-02-18T06:59:54.763Z,69.85
2019-02-18T07:02:39.926Z,69.99
2019-02-18T07:05:21.442Z,70.04
2019-02-18T07:08:15.282Z,70.05
2019-02-18T07:10:56.934Z,69.97
2019-02-18T07:13:30.311Z,70.09
2019-02-18T07:16:02.602Z,70.11
2019-02-18T07:18:34.782Z,70.14
2019-02-18T07:21:06.919Z,70.11
2019-02-18T07:23:39.088Z,70.15
2019-02-18T07:26:11.154Z,70.06
2019-02-18T07:28:44.619Z,69.74
2019-02-18T07:31:16.910Z,69.61
2019-02-18T07:33:49.143Z,69.58
2019-02-18T07:36:21.350Z,69.52
2019-02-18T07:38:53.722Z,69.43
2019-02-18T07:41:25.921Z,69.44
2019-02-18T07:43:58.230Z,69.43
2019-02-18T07:46:30.626Z,69.42
2019-02-18T07:49:03.959Z,69.40
2019-02-18T07:51:37.063Z,69.42
2019-02-18T07:54:10.360Z,69.70
2019-02-18T07:56:42.789Z,69.98
2019-02-18T07:59:15.195Z,70.15
2019-02-18T08:01:48.815Z,70.39
2019-02-18T08:04:22.114Z,70.68
2019-02-18T08:06:54.489Z,70.85
2019-02-18T08:09:26.862Z,70.95
2019-02-18T08:11:59.225Z,71.09
2019-02-18T08:14:31.564Z,71.03
2019-02-18T08:17:03.825Z,71.12
2019-02-18T08:19:36.127Z,71.04
2019-02-18T08:22:08.720Z,71.16
2019-02-18T08:24:41.022Z,71.18
2019-02-18T08:27:13.698Z,71.21
2019-02-18T08:29:45.941Z,71.05
2019-02-18T08:32:18.484Z,71.29
2019-02-18T08:34:51.790Z,71.18
2019-02-18T08:37:24.246Z,71.18
2019-02-18T08:39:56.368Z,71.17
2019-02-18T08:42:28.532Z,71.19
2019-02-18T08:45:00.808Z,71.14
2019-02-18T08:47:33.024Z,71.05
2019-02-18T08:50:05.328Z,71.04
2019-02-18T08:52:37.646Z,70.97
2019-02-18T08:55:10.467Z,70.83
2019-02-18T08:57:43.639Z,70.69
2019-02-18T09:00:17.065Z,70.66
2019-02-18T09:02:49.441Z,70.75
2019-02-18T09:05:21.958Z,70.71
2019-02-18T09:07:54.303Z,70.79
2019-02-18T09:10:33.446Z,70.86
2019-02-18T09:13:00.458Z,70.74
2019-02-18T09:15:33.596Z,70.74
2019-02-18T09:18:06.783Z,70.75
2019-02-18T09:20:38.954Z,70.68
2019-02-18T09:23:32.640Z,70.68
2019-02-18T09:26:06.704Z,70.69
2019-02-18T09:28:38.901Z,70.67
2019-02-18T09:31:11.076Z,70.77
2019-02-18T09:33:44.179Z,70.74
2019-02-18T09:36:16.462Z,70.73
2019-02-18T09:38:48.651Z,70.92
2019-02-18T09:41:20.572Z,70.85
2019-02-18T09:43:52.850Z,70.82
2019-02-18T09:46:24.985Z,70.68
2019-02-18T09:48:57.298Z,70.60
2019-02-18T09:51:29.663Z,70.85
2019-02-18T09:54:01.730Z,70.94
2019-02-18T09:56:33.847Z,71.00
2019-02-18T09:59:06.439Z,71.00
2019-02-18T10:01:38.649Z,71.01
2019-02-18T10:04:10.869Z,71.00
2019-02-18T10:06:42.942Z,71.03
2019-02-18T10:09:15.142Z,71.07
2019-02-18T10:11:47.216Z,71.06
2019-02-18T10:14:19.265Z,71.05
2019-02-18T10:16:51.404Z,71.03
2019-02-18T10:19:23.609Z,71.06
2019-02-18T10:21:55.692Z,71.08
2019-02-18T10:24:27.805Z,71.10
2019-02-18T10:26:59.936Z,71.10
2019-02-18T10:29:32.278Z,71.12
2019-02-18T10:32:04.490Z,71.12
2019-02-18T10:34:36.668Z,71.12
2019-02-18T10:37:08.781Z,71.14
2019-02-18T10:39:40.909Z,71.14
2019-02-18T10:42:12.966Z,71.16
2019-02-18T10:44:45.191Z,71.16
2019-02-18T10:47:17.294Z,71.18
2019-02-18T10:49:49.567Z,71.18
2019-02-18T10:52:22.635Z,71.18
2019-02-18T10:54:55.050Z,71.20
2019-02-18T10:57:27.198Z,71.21
2019-02-18T10:59:59.677Z,71.22
2019-02-18T11:02:31.947Z,71.25
2019-02-18T11:05:04.109Z,71.25
2019-02-18T11:07:37.394Z,71.27
2019-02-18T11:10:10.982Z,71.30
2019-02-18T11:12:43.022Z,71.30
2019-02-18T11:15:15.178Z,71.31
2019-02-18T11:17:47.760Z,71.36
2019-02-18T11:20:19.975Z,71.36
2019-02-18T11:22:53.027Z,71.34
2019-02-18T11:25:25.302Z,71.41
2019-02-18T11:27:57.489Z,71.40
2019-02-18T11:30:29.690Z,71.40
2019-02-18T11:33:01.936Z,71.42
2019-02-18T11:35:34.262Z,71.44
2019-02-18T11:38:06.358Z,71.45
2019-02-18T11:40:38.739Z,71.45
2019-02-18T11:43:11.508Z,71.48
2019-02-18T11:45:43.708Z,71.49
2019-02-18T11:48:15.855Z,71.52
2019-02-18T11:50:48.002Z,71.52
2019-02-18T11:53:20.288Z,71.54
2019-02-18T11:55:52.385Z,71.54
2019-02-18T11:58:24.594Z,71.57
2019-02-18T12:00:57.814Z,71.59
2019-02-18T12:03:31.394Z,71.61
2019-02-18T12:06:03.396Z,71.64
2019-02-18T12:08:37.896Z,71.68
2019-02-18T12:11:10.041Z,71.71
2019-02-18T12:13:42.349Z,71.73
2019-02-18T12:16:14.686Z,71.76
2019-02-18T12:18:46.734Z,71.76
2019-02-18T12:21:19.722Z,71.80
2019-02-18T12:23:52.438Z,71.79
2019-02-18T12:26:26.664Z,71.82
2019-02-18T12:28:58.814Z,71.87
2019-02-18T12:31:31.320Z,71.93
2019-02-18T12:34:03.438Z,71.93
2019-02-18T12:36:35.646Z,71.96
2019-02-18T12:39:12.092Z,72.00
2019-02-18T12:41:48.669Z,72.02
2019-02-18T12:44:18.159Z,72.04
2019-02-18T12:46:50.333Z,72.10
2019-02-18T12:49:22.527Z,72.18
2019-02-18T12:51:54.666Z,72.19
2019-02-18T12:54:27.001Z,72.24
2019-02-18T12:56:59.426Z,72.30
2019-02-18T12:59:31.771Z,72.31
2019-02-18T13:02:04.031Z,72.40
2019-02-18T13:04:36.588Z,72.60
2019-02-18T13:07:08.848Z,72.19
2019-02-18T13:09:42.542Z,72.25
2019-02-18T13:12:14.820Z,72.21
2019-02-18T13:14:47.124Z,72.29
2019-02-18T13:17:19.325Z,72.11
2019-02-18T13:19:51.507Z,71.93
2019-02-18T13:22:23.738Z,71.98
2019-02-18T13:24:55.742Z,72.11
2019-02-18T13:27:27.786Z,72.17
2019-02-18T13:30:00.010Z,72.09
2019-02-18T13:32:32.243Z,72.10
2019-02-18T13:35:04.745Z,72.12
2019-02-18T13:37:38.073Z,72.10
2019-02-18T13:40:11.462Z,72.05
2019-02-18T13:42:43.627Z,72.05
2019-02-18T13:45:15.933Z,72.10
2019-02-18T13:47:48.286Z,72.13
2019-02-18T13:50:20.594Z,72.14
2019-02-18T13:52:52.707Z,72.11
2019-02-18T13:55:25.552Z,72.11
2019-02-18T13:57:58.279Z,72.11
2019-02-18T14:00:30.934Z,72.16
2019-02-18T14:03:03.160Z,72.21
2019-02-18T14:05:35.144Z,72.22
2019-02-18T14:08:07.462Z,72.19
2019-02-18T14:10:39.831Z,72.13
2019-02-18T14:13:11.951Z,72.03
2019-02-18T14:15:44.126Z,72.03
2019-02-18T14:18:16.390Z,72.02
2019-02-18T14:20:48.858Z,71.98
2019-02-18T14:23:21.066Z,71.90
2019-02-18T14:25:53.163Z,71.87
2019-02-18T14:28:25.396Z,71.85
2019-02-18T14:30:57.767Z,71.86
2019-02-18T14:33:30.114Z,71.82
2019-02-18T14:36:02.348Z,71.72
2019-02-18T14:38:34.576Z,71.75
2019-02-18T14:41:06.872Z,71.75
2019-02-18T14:43:40.476Z,71.73
2019-02-18T14:46:12.507Z,71.71
2019-02-18T14:48:47.790Z,71.71
2019-02-18T14:51:23.084Z,71.63
2019-02-18T14:53:55.917Z,71.62
2019-02-18T14:56:28.282Z,71.57
2019-02-18T14:59:00.576Z,71.57
2019-02-18T15:01:32.665Z,71.58
2019-02-18T15:04:05.232Z,71.57
2019-02-18T15:06:37.848Z,71.39
2019-02-18T15:09:11.389Z,71.23
2019-02-18T15:11:43.621Z,71.32
2019-02-18T15:14:16.045Z,71.09
2019-02-18T15:16:48.249Z,71.04
2019-02-18T15:19:20.499Z,71.26
2019-02-18T15:21:52.660Z,71.36
2019-02-18T15:24:24.721Z,71.42
2019-02-18T15:26:56.891Z,71.42
2019-02-18T15:29:29.302Z,71.44
2019-02-18T15:32:01.726Z,71.37
2019-02-18T15:34:33.919Z,71.39
2019-02-18T15:37:06.303Z,71.35
2019-02-18T15:39:39.527Z,71.40
2019-02-18T15:42:12.215Z,71.40
2019-02-18T15:44:44.655Z,71.39
2019-02-18T15:47:17.040Z,71.42
2019-02-18T15:49:49.156Z,71.40
2019-02-18T15:52:21.711Z,71.45
2019-02-18T15:54:54.174Z,71.53
2019-02-18T15:57:26.753Z,71.54
2019-02-18T15:59:59.063Z,73.10
2019-02-18T16:02:31.337Z,71.69
2019-02-18T16:05:03.590Z,71.44
2019-02-18T16:07:36.017Z,71.08
2019-02-18T16:10:08.629Z,70.72
2019-02-18T16:12:40.835Z,70.75
2019-02-18T16:15:13.100Z,70.38
2019-02-18T16:17:45.652Z,70.64
2019-02-18T16:20:17.712Z,70.64
2019-02-18T16:22:49.945Z,70.76
2019-02-18T16:25:22.826Z,70.97
2019-02-18T16:27:55.210Z,71.06
2019-02-18T16:30:28.014Z,71.22
2019-02-18T16:33:00.285Z,71.22
2019-02-18T16:35:33.099Z,71.00
2019-02-18T16:38:05.336Z,71.22
2019-02-18T16:40:37.814Z,71.25
2019-02-18T16:43:10.040Z,71.26
2019-02-18T16:45:43.709Z,71.29
2019-02-18T16:48:17.288Z,71.41
2019-02-18T16:50:49.590Z,71.44
2019-02-18T16:53:21.928Z,71.38
2019-02-18T16:55:53.995Z,71.17
2019-02-18T16:58:26.243Z,71.09
2019-02-18T17:00:58.350Z,71.10
2019-02-18T17:03:30.574Z,71.06
2019-02-18T17:06:02.869Z,71.05
2019-02-18T17:08:35.102Z,71.05
2019-02-18T17:11:07.272Z,71.01
2019-02-18T17:13:39.532Z,71.14
2019-02-18T17:16:12.273Z,71.03
2019-02-18T17:18:44.451Z,70.92
2019-02-18T17:21:16.742Z,71.13
2019-02-18T17:23:48.929Z,71.27
2019-02-18T17:26:21.224Z,71.20
2019-02-18T17:28:53.412Z,71.30
2019-02-18T17:31:25.505Z,71.35
2019-02-18T17:33:57.630Z,71.33
2019-02-18T17:36:29.883Z,71.35
2019-02-18T17:39:01.964Z,71.25
2019-02-18T17:41:35.759Z,71.03
2019-02-18T17:44:07.927Z,71.10
2019-02-18T17:46:40.119Z,71.00
2019-02-18T17:49:12.249Z,70.99
2019-02-18T17:51:44.428Z,71.12
2019-02-18T17:54:16.970Z,71.19
2019-02-18T17:56:49.148Z,71.18
2019-02-18T17:59:21.472Z,71.09
2019-02-18T18:01:53.707Z,71.25
2019-02-18T18:04:25.880Z,71.26
2019-02-18T18:06:58.387Z,71.30
2019-02-18T18:09:30.598Z,71.45
2019-02-18T18:12:02.969Z,71.41
2019-02-18T18:14:35.193Z,71.29
2019-02-18T18:17:07.310Z,71.56
2019-02-18T18:19:39.643Z,71.55
2019-02-18T18:22:11.928Z,71.33
2019-02-18T18:24:43.997Z,71.62
2019-02-18T18:27:16.228Z,70.93
2019-02-18T18:29:48.428Z,70.87
2019-02-18T18:32:20.567Z,70.80
2019-02-18T18:34:53.004Z,70.93
2019-02-18T18:37:27.138Z,70.98
2019-02-18T18:39:59.466Z,71.02
2019-02-18T18:42:32.009Z,70.95
2019-02-18T18:45:04.146Z,70.94
2019-02-18T18:47:37.312Z,70.95
2019-02-18T18:50:10.501Z,71.07
2019-02-18T18:52:42.626Z,70.90
2019-02-18T18:55:15.666Z,70.99
2019-02-18T18:57:48.822Z,70.93
2019-02-18T19:00:24.081Z,71.00
2019-02-18T19:02:56.257Z,71.08
2019-02-18T19:05:28.451Z,71.04
2019-02-18T19:08:00.546Z,71.02
2019-02-18T19:10:32.652Z,70.98
2019-02-18T19:13:04.594Z,70.98
2019-02-18T19:15:36.524Z,70.97
2019-02-18T19:18:08.508Z,70.80
2019-02-18T19:20:41.448Z,70.67
2019-02-18T19:23:13.513Z,70.77
2019-02-18T19:25:46.534Z,70.65
2019-02-18T19:28:18.932Z,70.87
2019-02-18T19:30:51.163Z,70.82
2019-02-18T19:33:24.341Z,70.72
2019-02-18T19:35:56.569Z,70.78
2019-02-18T19:38:28.649Z,70.81
2019-02-18T19:41:00.658Z,70.91
2019-02-18T19:43:32.612Z,70.82
2019-02-18T19:46:04.540Z,70.76
2019-02-18T19:48:36.644Z,70.80
2019-02-18T19:51:09.229Z,70.77
2019-02-18T19:53:41.285Z,70.57
2019-02-18T19:56:14.698Z,70.73
2019-02-18T19:58:46.891Z,70.73
2019-02-18T20:01:18.931Z,70.76
2019-02-18T20:03:51.000Z,70.67
2019-02-18T20:06:22.940Z,70.67
2019-02-18T20:08:54.923Z,70.61
2019-02-18T20:11:26.867Z,70.56
2019-02-18T20:13:59.140Z,70.65
2019-02-18T20:16:30.941Z,70.57
2019-02-18T20:19:02.975Z,70.67
2019-02-18T20:21:35.044Z,70.75
2019-02-18T20:24:07.112Z,70.73
2019-02-18T20:26:39.686Z,70.68
2019-02-18T20:29:11.737Z,70.73
2019-02-18T20:31:44.014Z,70.69
2019-02-18T20:34:16.266Z,70.78
2019-02-18T20:36:48.552Z,70.79
2019-02-18T20:39:21.003Z,70.71
2019-02-18T20:41:53.068Z,70.79
2019-02-18T20:44:25.129Z,70.74
2019-02-18T20:46:57.192Z,70.64
2019-02-18T20:49:29.411Z,70.83
2019-02-18T20:52:01.697Z,70.83
2019-02-18T20:54:33.794Z,70.83
2019-02-18T20:57:06.087Z,70.79
2019-02-18T20:59:38.459Z,70.81
2019-02-18T21:02:11.051Z,70.69
2019-02-18T21:04:43.241Z,70.69
2019-02-18T21:07:15.268Z,70.73
2019-02-18T21:09:47.277Z,70.79
2019-02-18T21:12:20.031Z,70.81
2019-02-18T21:14:52.908Z,70.75
2019-02-18T21:17:25.118Z,70.80
2019-02-18T21:19:57.238Z,70.83
2019-02-18T21:22:29.311Z,70.83
2019-02-18T21:25:01.388Z,70.86
2019-02-18T21:27:33.710Z,70.92
2019-02-18T21:30:06.140Z,71.12
2019-02-18T21:32:39.981Z,71.09
2019-02-18T21:35:11.957Z,71.10
2019-02-18T21:37:44.645Z,71.06
2019-02-18T21:40:17.204Z,71.01
2019-02-18T21:42:49.466Z,71.07
2019-02-18T21:45:21.591Z,71.05
2019-02-18T21:47:53.764Z,71.08
2019-02-18T21:50:25.995Z,71.10
2019-02-18T21:52:58.032Z,71.21
2019-02-18T21:55:31.140Z,71.21
2019-02-18T21:58:03.575Z,71.12
2019-02-18T22:00:35.642Z,71.06
2019-02-18T22:03:07.899Z,71.08
2019-02-18T22:05:40.060Z,71.19
2019-02-18T22:08:12.253Z,71.11
2019-02-18T22:10:44.198Z,71.18
2019-02-18T22:13:16.354Z,71.17
2019-02-18T22:15:48.560Z,71.24
2019-02-18T22:18:20.631Z,71.16
2019-02-18T22:20:52.790Z,71.18
2019-02-18T22:23:24.919Z,71.25
2019-02-18T22:25:57.423Z,71.19
2019-02-18T22:28:29.506Z,71.16
2019-02-18T22:31:01.780Z,71.24
2019-02-18T22:33:33.851Z,71.13
2019-02-18T22:36:06.064Z,71.18
2019-02-18T22:38:38.160Z,71.21
2019-02-18T22:41:10.506Z,71.19
2019-02-18T22:43:42.668Z,71.24
2019-02-18T22:46:14.829Z,71.20
2019-02-18T22:48:47.110Z,71.21
2019-02-18T22:51:19.631Z,71.26
2019-02-18T22:53:51.859Z,71.33
2019-02-18T22:56:25.143Z,71.33
2019-02-18T22:58:57.259Z,71.24
2019-02-18T23:01:29.981Z,71.31
2019-02-18T23:04:02.278Z,71.29
2019-02-18T23:06:34.629Z,71.24
2019-02-18T23:09:08.730Z,71.40
2019-02-18T23:11:40.899Z,71.40
2019-02-18T23:14:13.143Z,71.34
2019-02-18T23:16:45.296Z,71.30
2019-02-18T23:19:17.314Z,71.31
2019-02-18T23:21:49.426Z,71.38
2019-02-18T23:24:21.541Z,71.32
2019-02-18T23:26:53.595Z,71.27
2019-02-18T23:29:25.734Z,71.38
2019-02-18T23:31:57.982Z,71.28
2019-02-18T23:34:30.188Z,71.25
2019-02-18T23:37:02.311Z,71.21
2019-02-18T23:39:34.474Z,71.21
2019-02-18T23:42:06.772Z,71.21
2019-02-18T23:44:38.687Z,71.33
2019-02-18T23:47:10.840Z,71.44
2019-02-18T23:49:43.071Z,71.43
2019-02-18T23:52:14.965Z,71.45
2019-02-18T23:54:47.118Z,71.30
2019-02-18T23:57:19.106Z,71.26
2019-02-18T23:59:51.183Z,71.19
